sensor_id;sensor_type;location;lat;lon;timestamp;P1;durP1;ratioP1;P2;durP2;ratioP2
77457;SDS011;66541;49.346;8.648;2023-02-15T00:01:44;24.75;;;8.73;;
77457;SDS011;66541;49.346;8.648;2023-02-15T00:04:12;23.85;;;9.18;;
77457;SDS011;66541;49.346;8.648;2023-02-15T00:06:38;26.10;;;9.98;;
77457;SDS011;66541;49.346;8.648;2023-02-15T00:09:04;26.13;;;10.05;;
77457;SDS011;66541;49.346;8.648;2023-02-15T00:11:29;24.85;;;8.55;;
77457;SDS011;66541;49.346;8.648;2023-02-15T00:14:19;26.30;;;9.82;;
77457;SDS011;66541;49.346;8.648;2023-02-15T00:16:45;26.92;;;8.65;;
77457;SDS011;66541;49.346;8.648;2023-02-15T00:19:11;25.27;;;10.35;;
77457;SDS011;66541;49.346;8.648;2023-02-15T00:21:38;24.60;;;9.75;;
77457;SDS011;66541;49.346;8.648;2023-02-15T00:24:05;26.08;;;9.50;;
77457;SDS011;66541;49.346;8.648;2023-02-15T00:26:31;22.17;;;9.00;;
77457;SDS011;66541;49.346;8.648;2023-02-15T00:28:57;25.23;;;9.23;;
77457;SDS011;66541;49.346;8.648;2023-02-15T00:31:26;27.73;;;10.57;;
77457;SDS011;66541;49.346;8.648;2023-02-15T00:33:52;26.60;;;9.65;;
77457;SDS011;66541;49.346;8.648;2023-02-15T00:36:17;24.45;;;9.00;;
77457;SDS011;66541;49.346;8.648;2023-02-15T00:38:43;29.30;;;9.82;;
77457;SDS011;66541;49.346;8.648;2023-02-15T00:41:08;28.35;;;9.18;;
77457;SDS011;66541;49.346;8.648;2023-02-15T00:43:34;25.23;;;10.05;;
77457;SDS011;66541;49.346;8.648;2023-02-15T00:46:00;26.73;;;9.80;;
77457;SDS011;66541;49.346;8.648;2023-02-15T00:48:26;27.88;;;9.15;;
77457;SDS011;66541;49.346;8.648;2023-02-15T00:50:52;22.15;;;8.80;;
77457;SDS011;66541;49.346;8.648;2023-02-15T00:53:19;24.73;;;8.73;;
77457;SDS011;66541;49.346;8.648;2023-02-15T00:55:45;23.00;;;8.15;;
77457;SDS011;66541;49.346;8.648;2023-02-15T00:58:11;20.58;;;7.88;;
77457;SDS011;66541;49.346;8.648;2023-02-15T01:00:36;24.52;;;8.88;;
77457;SDS011;66541;49.346;8.648;2023-02-15T01:03:02;22.38;;;8.10;;
77457;SDS011;66541;49.346;8.648;2023-02-15T01:05:27;24.83;;;9.30;;
77457;SDS011;66541;49.346;8.648;2023-02-15T01:07:54;23.27;;;8.93;;
77457;SDS011;66541;49.346;8.648;2023-02-15T01:10:20;22.90;;;7.97;;
77457;SDS011;66541;49.346;8.648;2023-02-15T01:12:45;28.70;;;9.25;;
77457;SDS011;66541;49.346;8.648;2023-02-15T01:15:11;27.02;;;10.07;;
77457;SDS011;66541;49.346;8.648;2023-02-15T01:17:36;26.63;;;8.82;;
77457;SDS011;66541;49.346;8.648;2023-02-15T01:20:01;26.27;;;10.48;;
77457;SDS011;66541;49.346;8.648;2023-02-15T01:22:26;26.25;;;9.10;;
77457;SDS011;66541;49.346;8.648;2023-02-15T01:24:52;24.85;;;9.00;;
77457;SDS011;66541;49.346;8.648;2023-02-15T01:27:17;27.17;;;8.77;;
77457;SDS011;66541;49.346;8.648;2023-02-15T01:29:43;22.13;;;8.93;;
77457;SDS011;66541;49.346;8.648;2023-02-15T01:32:08;25.67;;;9.82;;
77457;SDS011;66541;49.346;8.648;2023-02-15T01:34:34;23.63;;;8.25;;
77457;SDS011;66541;49.346;8.648;2023-02-15T01:36:59;23.10;;;8.73;;
77457;SDS011;66541;49.346;8.648;2023-02-15T01:39:24;23.88;;;8.27;;
77457;SDS011;66541;49.346;8.648;2023-02-15T01:41:50;23.92;;;8.15;;
77457;SDS011;66541;49.346;8.648;2023-02-15T01:47:11;25.98;;;8.38;;
77457;SDS011;66541;49.346;8.648;2023-02-15T01:49:38;22.88;;;7.82;;
77457;SDS011;66541;49.346;8.648;2023-02-15T01:52:06;24.30;;;8.13;;
77457;SDS011;66541;49.346;8.648;2023-02-15T01:54:32;22.98;;;7.53;;
77457;SDS011;66541;49.346;8.648;2023-02-15T01:57:02;19.73;;;7.72;;
77457;SDS011;66541;49.346;8.648;2023-02-15T01:59:30;23.58;;;8.18;;
77457;SDS011;66541;49.346;8.648;2023-02-15T02:01:57;23.40;;;8.30;;
77457;SDS011;66541;49.346;8.648;2023-02-15T02:04:26;22.75;;;8.77;;
77457;SDS011;66541;49.346;8.648;2023-02-15T02:06:56;24.88;;;8.32;;
77457;SDS011;66541;49.346;8.648;2023-02-15T02:09:22;23.10;;;8.55;;
77457;SDS011;66541;49.346;8.648;2023-02-15T02:11:47;20.75;;;8.27;;
77457;SDS011;66541;49.346;8.648;2023-02-15T02:14:13;24.42;;;8.18;;
77457;SDS011;66541;49.346;8.648;2023-02-15T02:16:46;20.77;;;8.68;;
77457;SDS011;66541;49.346;8.648;2023-02-15T02:19:30;20.92;;;7.75;;
77457;SDS011;66541;49.346;8.648;2023-02-15T02:25:12;23.92;;;7.78;;
77457;SDS011;66541;49.346;8.648;2023-02-15T02:41:49;19.38;;;6.13;;
77457;SDS011;66541;49.346;8.648;2023-02-15T02:52:04;20.73;;;7.90;;
77457;SDS011;66541;49.346;8.648;2023-02-15T02:54:32;21.77;;;8.43;;
77457;SDS011;66541;49.346;8.648;2023-02-15T02:57:00;23.33;;;8.23;;
77457;SDS011;66541;49.346;8.648;2023-02-15T02:59:30;25.40;;;8.70;;
77457;SDS011;66541;49.346;8.648;2023-02-15T03:02:06;22.77;;;7.55;;
77457;SDS011;66541;49.346;8.648;2023-02-15T03:04:37;19.25;;;7.55;;
77457;SDS011;66541;49.346;8.648;2023-02-15T03:07:11;23.67;;;8.40;;
77457;SDS011;66541;49.346;8.648;2023-02-15T03:09:38;25.25;;;8.85;;
77457;SDS011;66541;49.346;8.648;2023-02-15T03:12:09;25.42;;;8.57;;
77457;SDS011;66541;49.346;8.648;2023-02-15T03:14:36;27.15;;;8.93;;
77457;SDS011;66541;49.346;8.648;2023-02-15T03:17:01;26.38;;;9.23;;
77457;SDS011;66541;49.346;8.648;2023-02-15T03:19:29;26.70;;;9.45;;
77457;SDS011;66541;49.346;8.648;2023-02-15T03:21:57;25.15;;;9.50;;
77457;SDS011;66541;49.346;8.648;2023-02-15T03:24:36;21.45;;;8.55;;
77457;SDS011;66541;49.346;8.648;2023-02-15T03:27:06;24.83;;;8.77;;
77457;SDS011;66541;49.346;8.648;2023-02-15T03:29:34;23.58;;;9.10;;
77457;SDS011;66541;49.346;8.648;2023-02-15T03:32:00;25.45;;;9.15;;
77457;SDS011;66541;49.346;8.648;2023-02-15T03:34:28;24.30;;;8.82;;
77457;SDS011;66541;49.346;8.648;2023-02-15T03:36:58;25.90;;;9.38;;
77457;SDS011;66541;49.346;8.648;2023-02-15T03:39:43;24.75;;;9.25;;
77457;SDS011;66541;49.346;8.648;2023-02-15T03:42:20;25.10;;;9.80;;
77457;SDS011;66541;49.346;8.648;2023-02-15T03:47:19;27.35;;;7.85;;
77457;SDS011;66541;49.346;8.648;2023-02-15T03:50:05;22.67;;;7.95;;
77457;SDS011;66541;49.346;8.648;2023-02-15T03:52:54;33.30;;;9.13;;
77457;SDS011;66541;49.346;8.648;2023-02-15T03:55:21;23.42;;;9.35;;
77457;SDS011;66541;49.346;8.648;2023-02-15T03:57:46;27.15;;;9.40;;
77457;SDS011;66541;49.346;8.648;2023-02-15T04:00:30;25.02;;;8.88;;
77457;SDS011;66541;49.346;8.648;2023-02-15T04:05:49;26.52;;;8.50;;
77457;SDS011;66541;49.346;8.648;2023-02-15T04:08:15;26.10;;;8.98;;
77457;SDS011;66541;49.346;8.648;2023-02-15T04:10:41;26.38;;;9.18;;
77457;SDS011;66541;49.346;8.648;2023-02-15T04:13:20;27.00;;;9.73;;
77457;SDS011;66541;49.346;8.648;2023-02-15T04:15:54;27.55;;;10.00;;
77457;SDS011;66541;49.346;8.648;2023-02-15T04:18:39;21.92;;;9.05;;
77457;SDS011;66541;49.346;8.648;2023-02-15T04:21:24;25.55;;;9.75;;
77457;SDS011;66541;49.346;8.648;2023-02-15T04:24:10;27.70;;;9.25;;
77457;SDS011;66541;49.346;8.648;2023-02-15T04:26:54;28.42;;;9.38;;
77457;SDS011;66541;49.346;8.648;2023-02-15T04:29:21;26.25;;;9.20;;
77457;SDS011;66541;49.346;8.648;2023-02-15T04:31:46;27.05;;;9.30;;
77457;SDS011;66541;49.346;8.648;2023-02-15T04:34:12;26.98;;;9.38;;
77457;SDS011;66541;49.346;8.648;2023-02-15T04:36:38;26.20;;;9.32;;
77457;SDS011;66541;49.346;8.648;2023-02-15T04:39:04;25.13;;;9.27;;
77457;SDS011;66541;49.346;8.648;2023-02-15T04:41:30;22.67;;;8.82;;
77457;SDS011;66541;49.346;8.648;2023-02-15T04:43:55;23.48;;;8.50;;
77457;SDS011;66541;49.346;8.648;2023-02-15T04:46:21;24.42;;;8.95;;
77457;SDS011;66541;49.346;8.648;2023-02-15T04:48:46;26.00;;;9.05;;
77457;SDS011;66541;49.346;8.648;2023-02-15T04:51:12;24.75;;;9.93;;
77457;SDS011;66541;49.346;8.648;2023-02-15T04:53:37;27.55;;;9.50;;
77457;SDS011;66541;49.346;8.648;2023-02-15T04:56:02;27.30;;;9.48;;
77457;SDS011;66541;49.346;8.648;2023-02-15T04:58:28;23.20;;;8.40;;
77457;SDS011;66541;49.346;8.648;2023-02-15T05:00:56;25.13;;;9.52;;
77457;SDS011;66541;49.346;8.648;2023-02-15T05:03:22;25.70;;;9.50;;
77457;SDS011;66541;49.346;8.648;2023-02-15T05:05:47;22.70;;;8.98;;
77457;SDS011;66541;49.346;8.648;2023-02-15T05:08:13;25.27;;;9.07;;
77457;SDS011;66541;49.346;8.648;2023-02-15T05:10:38;28.52;;;10.88;;
77457;SDS011;66541;49.346;8.648;2023-02-15T05:13:03;26.35;;;9.48;;
77457;SDS011;66541;49.346;8.648;2023-02-15T05:15:29;25.85;;;9.73;;
77457;SDS011;66541;49.346;8.648;2023-02-15T05:17:54;31.27;;;10.43;;
77457;SDS011;66541;49.346;8.648;2023-02-15T05:20:19;24.92;;;10.07;;
77457;SDS011;66541;49.346;8.648;2023-02-15T05:22:45;27.05;;;10.52;;
77457;SDS011;66541;49.346;8.648;2023-02-15T05:25:10;28.65;;;9.52;;
77457;SDS011;66541;49.346;8.648;2023-02-15T05:27:54;28.92;;;11.13;;
77457;SDS011;66541;49.346;8.648;2023-02-15T05:30:38;29.13;;;9.70;;
77457;SDS011;66541;49.346;8.648;2023-02-15T05:33:04;28.77;;;9.27;;
77457;SDS011;66541;49.346;8.648;2023-02-15T05:35:30;24.67;;;9.70;;
77457;SDS011;66541;49.346;8.648;2023-02-15T05:37:56;25.50;;;9.48;;
77457;SDS011;66541;49.346;8.648;2023-02-15T05:40:22;27.45;;;10.73;;
77457;SDS011;66541;49.346;8.648;2023-02-15T05:42:47;28.90;;;10.85;;
77457;SDS011;66541;49.346;8.648;2023-02-15T05:45:12;26.02;;;9.55;;
77457;SDS011;66541;49.346;8.648;2023-02-15T05:47:37;24.88;;;9.40;;
77457;SDS011;66541;49.346;8.648;2023-02-15T05:50:03;28.38;;;10.05;;
77457;SDS011;66541;49.346;8.648;2023-02-15T05:52:28;23.90;;;9.13;;
77457;SDS011;66541;49.346;8.648;2023-02-15T05:54:54;26.42;;;9.68;;
77457;SDS011;66541;49.346;8.648;2023-02-15T05:57:19;24.52;;;9.13;;
77457;SDS011;66541;49.346;8.648;2023-02-15T05:59:44;22.98;;;9.73;;
77457;SDS011;66541;49.346;8.648;2023-02-15T06:02:10;24.23;;;8.73;;
77457;SDS011;66541;49.346;8.648;2023-02-15T06:04:36;26.92;;;9.85;;
77457;SDS011;66541;49.346;8.648;2023-02-15T06:07:01;24.15;;;9.02;;
77457;SDS011;66541;49.346;8.648;2023-02-15T06:09:26;25.58;;;9.90;;
77457;SDS011;66541;49.346;8.648;2023-02-15T06:11:52;25.42;;;9.77;;
77457;SDS011;66541;49.346;8.648;2023-02-15T06:14:17;23.98;;;8.95;;
77457;SDS011;66541;49.346;8.648;2023-02-15T06:16:43;26.58;;;10.57;;
77457;SDS011;66541;49.346;8.648;2023-02-15T06:19:08;26.90;;;9.90;;
77457;SDS011;66541;49.346;8.648;2023-02-15T06:21:34;27.60;;;9.57;;
77457;SDS011;66541;49.346;8.648;2023-02-15T06:23:59;24.92;;;8.70;;
77457;SDS011;66541;49.346;8.648;2023-02-15T06:26:24;26.20;;;9.43;;
77457;SDS011;66541;49.346;8.648;2023-02-15T06:28:50;26.15;;;9.68;;
77457;SDS011;66541;49.346;8.648;2023-02-15T06:31:15;29.92;;;10.65;;
77457;SDS011;66541;49.346;8.648;2023-02-15T06:33:40;29.00;;;11.65;;
77457;SDS011;66541;49.346;8.648;2023-02-15T06:36:06;26.83;;;10.38;;
77457;SDS011;66541;49.346;8.648;2023-02-15T06:38:31;25.30;;;9.18;;
77457;SDS011;66541;49.346;8.648;2023-02-15T06:40:56;24.67;;;9.20;;
77457;SDS011;66541;49.346;8.648;2023-02-15T06:43:22;26.08;;;9.18;;
77457;SDS011;66541;49.346;8.648;2023-02-15T06:45:47;25.35;;;9.73;;
77457;SDS011;66541;49.346;8.648;2023-02-15T06:48:12;23.25;;;9.07;;
77457;SDS011;66541;49.346;8.648;2023-02-15T06:50:38;25.20;;;9.25;;
77457;SDS011;66541;49.346;8.648;2023-02-15T06:53:03;23.60;;;9.00;;
77457;SDS011;66541;49.346;8.648;2023-02-15T06:55:28;26.13;;;9.15;;
77457;SDS011;66541;49.346;8.648;2023-02-15T06:57:54;27.80;;;9.50;;
77457;SDS011;66541;49.346;8.648;2023-02-15T07:00:19;25.52;;;8.88;;
77457;SDS011;66541;49.346;8.648;2023-02-15T07:02:46;27.52;;;10.10;;
77457;SDS011;66541;49.346;8.648;2023-02-15T07:05:12;24.25;;;8.73;;
77457;SDS011;66541;49.346;8.648;2023-02-15T07:07:37;26.75;;;10.23;;
77457;SDS011;66541;49.346;8.648;2023-02-15T07:10:03;24.88;;;8.30;;
77457;SDS011;66541;49.346;8.648;2023-02-15T07:12:29;21.00;;;8.52;;
77457;SDS011;66541;49.346;8.648;2023-02-15T07:15:06;24.23;;;8.70;;
77457;SDS011;66541;49.346;8.648;2023-02-15T07:17:32;22.33;;;8.80;;
77457;SDS011;66541;49.346;8.648;2023-02-15T07:19:58;23.17;;;9.07;;
77457;SDS011;66541;49.346;8.648;2023-02-15T07:22:23;24.48;;;8.82;;
77457;SDS011;66541;49.346;8.648;2023-02-15T07:24:48;23.33;;;8.98;;
77457;SDS011;66541;49.346;8.648;2023-02-15T07:27:14;23.50;;;8.05;;
77457;SDS011;66541;49.346;8.648;2023-02-15T07:29:39;22.58;;;8.77;;
77457;SDS011;66541;49.346;8.648;2023-02-15T07:32:05;27.48;;;10.25;;
77457;SDS011;66541;49.346;8.648;2023-02-15T07:34:30;24.02;;;8.32;;
77457;SDS011;66541;49.346;8.648;2023-02-15T07:36:55;21.90;;;7.95;;
77457;SDS011;66541;49.346;8.648;2023-02-15T07:39:21;21.42;;;7.82;;
77457;SDS011;66541;49.346;8.648;2023-02-15T07:41:46;25.15;;;9.05;;
77457;SDS011;66541;49.346;8.648;2023-02-15T07:44:12;22.63;;;8.25;;
77457;SDS011;66541;49.346;8.648;2023-02-15T07:46:41;26.58;;;8.95;;
77457;SDS011;66541;49.346;8.648;2023-02-15T07:49:06;26.42;;;8.63;;
77457;SDS011;66541;49.346;8.648;2023-02-15T07:51:32;23.15;;;9.20;;
77457;SDS011;66541;49.346;8.648;2023-02-15T07:53:57;25.48;;;8.95;;
77457;SDS011;66541;49.346;8.648;2023-02-15T07:56:22;24.23;;;8.70;;
77457;SDS011;66541;49.346;8.648;2023-02-15T07:58:48;22.42;;;8.65;;
77457;SDS011;66541;49.346;8.648;2023-02-15T08:01:17;23.80;;;9.02;;
77457;SDS011;66541;49.346;8.648;2023-02-15T08:03:46;21.98;;;8.05;;
77457;SDS011;66541;49.346;8.648;2023-02-15T08:06:11;23.85;;;8.57;;
77457;SDS011;66541;49.346;8.648;2023-02-15T08:08:38;20.55;;;8.07;;
77457;SDS011;66541;49.346;8.648;2023-02-15T08:13:58;21.55;;;8.68;;
77457;SDS011;66541;49.346;8.648;2023-02-15T08:16:40;24.27;;;8.25;;
77457;SDS011;66541;49.346;8.648;2023-02-15T08:19:22;23.67;;;8.43;;
77457;SDS011;66541;49.346;8.648;2023-02-15T08:21:53;22.60;;;8.15;;
77457;SDS011;66541;49.346;8.648;2023-02-15T08:24:22;22.25;;;8.80;;
77457;SDS011;66541;49.346;8.648;2023-02-15T08:26:49;21.35;;;8.48;;
77457;SDS011;66541;49.346;8.648;2023-02-15T08:29:16;22.52;;;9.05;;
77457;SDS011;66541;49.346;8.648;2023-02-15T08:31:47;22.95;;;7.97;;
77457;SDS011;66541;49.346;8.648;2023-02-15T08:34:14;22.00;;;8.35;;
77457;SDS011;66541;49.346;8.648;2023-02-15T08:36:40;21.02;;;8.15;;
77457;SDS011;66541;49.346;8.648;2023-02-15T08:39:06;20.73;;;7.78;;
77457;SDS011;66541;49.346;8.648;2023-02-15T08:41:32;19.92;;;7.75;;
77457;SDS011;66541;49.346;8.648;2023-02-15T08:44:00;22.35;;;7.60;;
77457;SDS011;66541;49.346;8.648;2023-02-15T08:46:27;21.33;;;8.70;;
77457;SDS011;66541;49.346;8.648;2023-02-15T08:48:54;21.25;;;8.23;;
77457;SDS011;66541;49.346;8.648;2023-02-15T08:51:21;22.42;;;8.00;;
77457;SDS011;66541;49.346;8.648;2023-02-15T08:53:49;24.40;;;9.32;;
77457;SDS011;66541;49.346;8.648;2023-02-15T08:56:19;19.05;;;8.02;;
77457;SDS011;66541;49.346;8.648;2023-02-15T08:58:54;22.33;;;8.30;;
77457;SDS011;66541;49.346;8.648;2023-02-15T09:01:21;22.98;;;8.88;;
77457;SDS011;66541;49.346;8.648;2023-02-15T09:03:49;21.58;;;7.13;;
77457;SDS011;66541;49.346;8.648;2023-02-15T09:06:20;20.25;;;7.72;;
77457;SDS011;66541;49.346;8.648;2023-02-15T09:08:46;21.63;;;9.15;;
77457;SDS011;66541;49.346;8.648;2023-02-15T09:11:12;25.27;;;9.27;;
77457;SDS011;66541;49.346;8.648;2023-02-15T09:13:55;28.08;;;8.75;;
77457;SDS011;66541;49.346;8.648;2023-02-15T09:16:26;27.48;;;8.75;;
77457;SDS011;66541;49.346;8.648;2023-02-15T09:18:53;24.38;;;10.27;;
77457;SDS011;66541;49.346;8.648;2023-02-15T09:21:19;25.65;;;9.32;;
77457;SDS011;66541;49.346;8.648;2023-02-15T09:23:47;23.60;;;9.23;;
77457;SDS011;66541;49.346;8.648;2023-02-15T09:26:14;23.50;;;9.07;;
77457;SDS011;66541;49.346;8.648;2023-02-15T09:28:44;25.83;;;9.77;;
77457;SDS011;66541;49.346;8.648;2023-02-15T09:31:11;26.17;;;9.80;;
77457;SDS011;66541;49.346;8.648;2023-02-15T09:33:38;27.13;;;9.07;;
77457;SDS011;66541;49.346;8.648;2023-02-15T09:36:04;23.02;;;9.35;;
77457;SDS011;66541;49.346;8.648;2023-02-15T09:38:30;23.05;;;8.75;;
77457;SDS011;66541;49.346;8.648;2023-02-15T09:41:05;21.23;;;8.90;;
77457;SDS011;66541;49.346;8.648;2023-02-15T09:43:35;23.80;;;9.07;;
77457;SDS011;66541;49.346;8.648;2023-02-15T09:46:12;23.35;;;8.52;;
77457;SDS011;66541;49.346;8.648;2023-02-15T09:49:06;22.05;;;9.18;;
77457;SDS011;66541;49.346;8.648;2023-02-15T09:51:51;24.65;;;9.35;;
77457;SDS011;66541;49.346;8.648;2023-02-15T09:54:32;25.17;;;10.18;;
77457;SDS011;66541;49.346;8.648;2023-02-15T09:57:14;21.25;;;9.15;;
77457;SDS011;66541;49.346;8.648;2023-02-15T10:02:33;23.40;;;8.57;;
77457;SDS011;66541;49.346;8.648;2023-02-15T10:14:08;26.02;;;9.48;;
77457;SDS011;66541;49.346;8.648;2023-02-15T10:16:41;26.33;;;10.07;;
77457;SDS011;66541;49.346;8.648;2023-02-15T10:19:11;25.95;;;9.60;;
77457;SDS011;66541;49.346;8.648;2023-02-15T10:22:01;26.92;;;10.20;;
77457;SDS011;66541;49.346;8.648;2023-02-15T10:26:56;26.23;;;10.27;;
77457;SDS011;66541;49.346;8.648;2023-02-15T10:29:35;27.40;;;10.45;;
77457;SDS011;66541;49.346;8.648;2023-02-15T10:34:52;31.83;;;12.93;;
77457;SDS011;66541;49.346;8.648;2023-02-15T10:37:29;25.85;;;11.18;;
77457;SDS011;66541;49.346;8.648;2023-02-15T10:40:42;27.02;;;11.10;;
77457;SDS011;66541;49.346;8.648;2023-02-15T11:01:13;27.40;;;10.63;;
77457;SDS011;66541;49.346;8.648;2023-02-15T11:06:41;27.63;;;11.70;;
77457;SDS011;66541;49.346;8.648;2023-02-15T11:09:13;25.17;;;11.07;;
77457;SDS011;66541;49.346;8.648;2023-02-15T11:17:10;26.02;;;10.65;;
77457;SDS011;66541;49.346;8.648;2023-02-15T11:20:23;27.15;;;10.60;;
77457;SDS011;66541;49.346;8.648;2023-02-15T11:22:33;28.33;;;11.88;;
77457;SDS011;66541;49.346;8.648;2023-02-15T11:24:59;28.50;;;10.93;;
77457;SDS011;66541;49.346;8.648;2023-02-15T11:27:30;29.55;;;11.05;;
77457;SDS011;66541;49.346;8.648;2023-02-15T11:29:59;29.70;;;11.48;;
77457;SDS011;66541;49.346;8.648;2023-02-15T11:32:40;27.27;;;10.38;;
77457;SDS011;66541;49.346;8.648;2023-02-15T11:40:20;26.53;;;10.87;;
77457;SDS011;66541;49.346;8.648;2023-02-15T11:42:49;28.10;;;11.30;;
77457;SDS011;66541;49.346;8.648;2023-02-15T11:47:47;28.50;;;11.55;;
77457;SDS011;66541;49.346;8.648;2023-02-15T11:50:14;30.33;;;13.18;;
77457;SDS011;66541;49.346;8.648;2023-02-15T11:52:41;25.83;;;11.25;;
77457;SDS011;66541;49.346;8.648;2023-02-15T11:55:11;27.75;;;12.88;;
77457;SDS011;66541;49.346;8.648;2023-02-15T11:57:39;30.20;;;13.23;;
77457;SDS011;66541;49.346;8.648;2023-02-15T12:02:44;30.83;;;11.98;;
77457;SDS011;66541;49.346;8.648;2023-02-15T12:05:13;27.45;;;11.50;;
77457;SDS011;66541;49.346;8.648;2023-02-15T12:07:42;28.95;;;11.65;;
77457;SDS011;66541;49.346;8.648;2023-02-15T12:12:42;30.60;;;12.18;;
77457;SDS011;66541;49.346;8.648;2023-02-15T12:15:08;30.13;;;11.88;;
77457;SDS011;66541;49.346;8.648;2023-02-15T12:17:47;29.58;;;12.00;;
77457;SDS011;66541;49.346;8.648;2023-02-15T12:22:45;27.93;;;11.87;;
77457;SDS011;66541;49.346;8.648;2023-02-15T12:25:28;32.03;;;12.27;;
77457;SDS011;66541;49.346;8.648;2023-02-15T12:28:24;27.52;;;11.75;;
77457;SDS011;66541;49.346;8.648;2023-02-15T12:30:50;31.98;;;12.55;;
77457;SDS011;66541;49.346;8.648;2023-02-15T12:33:36;32.35;;;13.05;;
77457;SDS011;66541;49.346;8.648;2023-02-15T12:36:11;31.15;;;12.52;;
77457;SDS011;66541;49.346;8.648;2023-02-15T12:38:38;31.23;;;12.68;;
77457;SDS011;66541;49.346;8.648;2023-02-15T12:41:11;33.35;;;12.73;;
77457;SDS011;66541;49.346;8.648;2023-02-15T12:43:47;29.30;;;12.48;;
77457;SDS011;66541;49.346;8.648;2023-02-15T12:46:32;31.08;;;13.10;;
77457;SDS011;66541;49.346;8.648;2023-02-15T12:51:44;29.38;;;12.95;;
77457;SDS011;66541;49.346;8.648;2023-02-15T12:54:42;33.22;;;14.10;;
77457;SDS011;66541;49.346;8.648;2023-02-15T12:57:38;30.27;;;12.85;;
77457;SDS011;66541;49.346;8.648;2023-02-15T13:00:03;31.83;;;14.10;;
77457;SDS011;66541;49.346;8.648;2023-02-15T13:05:04;26.45;;;10.98;;
77457;SDS011;66541;49.346;8.648;2023-02-15T13:07:38;26.92;;;11.70;;
77457;SDS011;66541;49.346;8.648;2023-02-15T13:12:54;30.13;;;12.13;;
77457;SDS011;66541;49.346;8.648;2023-02-15T13:17:52;27.25;;;13.77;;
77457;SDS011;66541;49.346;8.648;2023-02-15T13:20:21;28.52;;;12.77;;
77457;SDS011;66541;49.346;8.648;2023-02-15T13:22:52;27.00;;;13.18;;
77457;SDS011;66541;49.346;8.648;2023-02-15T13:25:21;28.77;;;13.00;;
77457;SDS011;66541;49.346;8.648;2023-02-15T13:27:50;25.63;;;12.13;;
77457;SDS011;66541;49.346;8.648;2023-02-15T13:32:51;25.25;;;11.45;;
77457;SDS011;66541;49.346;8.648;2023-02-15T13:35:19;24.63;;;11.52;;
77457;SDS011;66541;49.346;8.648;2023-02-15T13:40:33;25.75;;;11.40;;
77457;SDS011;66541;49.346;8.648;2023-02-15T13:43:49;24.45;;;11.98;;
77457;SDS011;66541;49.346;8.648;2023-02-15T13:46:11;24.20;;;11.05;;
77457;SDS011;66541;49.346;8.648;2023-02-15T13:57:14;25.40;;;12.20;;
77457;SDS011;66541;49.346;8.648;2023-02-15T14:03:12;25.23;;;11.90;;
77457;SDS011;66541;49.346;8.648;2023-02-15T14:07:53;23.42;;;10.57;;
77457;SDS011;66541;49.346;8.648;2023-02-15T14:13:27;24.52;;;12.32;;
77457;SDS011;66541;49.346;8.648;2023-02-15T14:30:39;24.27;;;12.68;;
77457;SDS011;66541;49.346;8.648;2023-02-15T14:35:56;22.17;;;10.75;;
77457;SDS011;66541;49.346;8.648;2023-02-15T14:43:49;23.60;;;11.57;;
77457;SDS011;66541;49.346;8.648;2023-02-15T14:54:09;22.73;;;11.98;;
77457;SDS011;66541;49.346;8.648;2023-02-15T14:56:35;18.40;;;9.75;;
77457;SDS011;66541;49.346;8.648;2023-02-15T14:59:11;20.10;;;11.25;;
77457;SDS011;66541;49.346;8.648;2023-02-15T15:01:37;23.42;;;12.25;;
77457;SDS011;66541;49.346;8.648;2023-02-15T15:04:07;22.15;;;11.10;;
77457;SDS011;66541;49.346;8.648;2023-02-15T15:06:36;24.42;;;12.35;;
77457;SDS011;66541;49.346;8.648;2023-02-15T15:11:40;23.52;;;10.73;;
77457;SDS011;66541;49.346;8.648;2023-02-15T15:14:07;22.15;;;10.52;;
77457;SDS011;66541;49.346;8.648;2023-02-15T15:19:02;23.88;;;11.40;;
77457;SDS011;66541;49.346;8.648;2023-02-15T15:32:53;24.05;;;11.23;;
77457;SDS011;66541;49.346;8.648;2023-02-15T15:44:21;23.50;;;11.30;;
77457;SDS011;66541;49.346;8.648;2023-02-15T15:50:04;25.08;;;11.85;;
77457;SDS011;66541;49.346;8.648;2023-02-15T15:52:37;23.27;;;12.02;;
77457;SDS011;66541;49.346;8.648;2023-02-15T15:55:04;21.88;;;9.77;;
77457;SDS011;66541;49.346;8.648;2023-02-15T15:57:41;21.45;;;9.98;;
77457;SDS011;66541;49.346;8.648;2023-02-15T16:00:25;26.10;;;11.18;;
77457;SDS011;66541;49.346;8.648;2023-02-15T16:02:53;22.63;;;9.95;;
77457;SDS011;66541;49.346;8.648;2023-02-15T16:05:18;24.92;;;9.55;;
77457;SDS011;66541;49.346;8.648;2023-02-15T16:07:44;24.02;;;10.05;;
77457;SDS011;66541;49.346;8.648;2023-02-15T16:10:20;23.02;;;10.27;;
77457;SDS011;66541;49.346;8.648;2023-02-15T16:12:49;19.60;;;9.20;;
77457;SDS011;66541;49.346;8.648;2023-02-15T16:15:17;23.15;;;10.43;;
77457;SDS011;66541;49.346;8.648;2023-02-15T16:17:45;26.83;;;11.02;;
77457;SDS011;66541;49.346;8.648;2023-02-15T16:20:31;25.75;;;10.60;;
77457;SDS011;66541;49.346;8.648;2023-02-15T16:23:04;22.40;;;9.98;;
77457;SDS011;66541;49.346;8.648;2023-02-15T16:28:26;21.17;;;10.10;;
77457;SDS011;66541;49.346;8.648;2023-02-15T16:31:12;22.42;;;11.27;;
77457;SDS011;66541;49.346;8.648;2023-02-15T16:33:40;24.08;;;9.85;;
77457;SDS011;66541;49.346;8.648;2023-02-15T16:36:09;25.70;;;9.60;;
77457;SDS011;66541;49.346;8.648;2023-02-15T16:43:32;24.83;;;9.50;;
77457;SDS011;66541;49.346;8.648;2023-02-15T16:46:09;23.42;;;10.82;;
77457;SDS011;66541;49.346;8.648;2023-02-15T16:48:39;24.00;;;9.98;;
77457;SDS011;66541;49.346;8.648;2023-02-15T16:51:06;25.15;;;11.45;;
77457;SDS011;66541;49.346;8.648;2023-02-15T16:53:33;23.55;;;9.98;;
77457;SDS011;66541;49.346;8.648;2023-02-15T16:55:59;23.27;;;9.77;;
77457;SDS011;66541;49.346;8.648;2023-02-15T16:58:36;25.83;;;10.70;;
77457;SDS011;66541;49.346;8.648;2023-02-15T17:01:03;25.67;;;10.55;;
77457;SDS011;66541;49.346;8.648;2023-02-15T17:03:31;24.85;;;10.50;;
77457;SDS011;66541;49.346;8.648;2023-02-15T17:05:57;24.83;;;10.23;;
77457;SDS011;66541;49.346;8.648;2023-02-15T17:13:35;26.75;;;11.20;;
77457;SDS011;66541;49.346;8.648;2023-02-15T17:18:27;28.80;;;11.80;;
77457;SDS011;66541;49.346;8.648;2023-02-15T17:20:54;25.48;;;12.27;;
77457;SDS011;66541;49.346;8.648;2023-02-15T17:23:36;30.23;;;12.27;;
77457;SDS011;66541;49.346;8.648;2023-02-15T17:26:12;34.70;;;16.42;;
77457;SDS011;66541;49.346;8.648;2023-02-15T17:28:40;35.88;;;16.95;;
77457;SDS011;66541;49.346;8.648;2023-02-15T17:31:12;32.25;;;14.80;;
77457;SDS011;66541;49.346;8.648;2023-02-15T17:33:39;30.98;;;13.82;;
77457;SDS011;66541;49.346;8.648;2023-02-15T17:36:24;33.80;;;13.80;;
77457;SDS011;66541;49.346;8.648;2023-02-15T17:41:30;31.05;;;13.75;;
77457;SDS011;66541;49.346;8.648;2023-02-15T17:43:56;30.40;;;12.77;;
77457;SDS011;66541;49.346;8.648;2023-02-15T17:46:21;30.92;;;13.60;;
77457;SDS011;66541;49.346;8.648;2023-02-15T17:48:48;29.85;;;11.60;;
77457;SDS011;66541;49.346;8.648;2023-02-15T17:51:14;28.83;;;12.95;;
77457;SDS011;66541;49.346;8.648;2023-02-15T17:53:41;28.98;;;12.57;;
77457;SDS011;66541;49.346;8.648;2023-02-15T17:56:27;28.55;;;13.13;;
77457;SDS011;66541;49.346;8.648;2023-02-15T17:58:52;30.33;;;12.93;;
77457;SDS011;66541;49.346;8.648;2023-02-15T18:01:18;29.65;;;12.43;;
77457;SDS011;66541;49.346;8.648;2023-02-15T18:04:03;31.00;;;13.30;;
77457;SDS011;66541;49.346;8.648;2023-02-15T18:06:47;27.80;;;12.65;;
77457;SDS011;66541;49.346;8.648;2023-02-15T18:09:31;29.85;;;12.95;;